Latest Weather Observations for Gosford

IDN60901

Issued at 10:01 pm EST Saturday 23 May 2015 (issued every 10 minutes, with the page automatically refreshed every 10 minutes)

About weather observations | Map of Sydney area stations | Latest observations for Sydney area | Other Formats
Station Details ID: 061425 Name: GOSFORD AWS Lat: -33.44 Lon: 151.36 Height: 7.0 m
Data from the previous 72 hours. | See also: Recent months at Gosford
Date/Time
EST
Tmp

°C
App
Tmp
°C
Dew
Point
°C
Rel
Hum
%
Delta-T

°C
Wind Press
QNH
hPa
Press
MSL
hPa
Rain
since
9 am
mm
Dir
 
Spd
km/h
Gust
km/h
Spd
kts
Gust
kts
23/10:00pm 8.8 8.4 8.2 96 0.3 CALM 0 0 0 0 - - 0.2
23/09:30pm 8.9 8.5 8.1 95 0.4 CALM 0 0 0 0 - - 0.2
23/09:00pm 9.3 8.9 8.2 93 0.5 CALM 0 0 0 0 - - 0.2
23/08:30pm 10.0 9.8 8.9 93 0.5 CALM 0 0 0 0 - - 0.2
23/08:00pm 10.3 10.1 8.9 91 0.7 CALM 0 0 0 0 - - 0.2
23/07:30pm 11.4 10.4 9.0 85 1.2 NW 4 6 2 3 - - 0.2
23/07:00pm 11.6 10.6 9.0 84 1.3 NW 4 4 2 2 - - 0.2
23/06:30pm 11.9 11.4 9.5 85 1.2 W 2 4 1 2 - - 0.2
23/06:00pm 12.6 12.2 9.6 82 1.5 SSW 2 4 1 2 - - 0.2
23/05:30pm 13.0 12.9 9.6 80 1.7 CALM 0 0 0 0 - - 0.2
23/05:00pm 15.5 14.3 9.6 68 3.1 SSW 6 11 3 6 - - 0.2
23/04:30pm 16.2 14.4 9.6 65 3.4 SSW 9 13 5 7 - - 0.2
23/04:00pm 16.8 14.6 9.5 62 3.8 S 11 17 6 9 - - 0.2
23/03:30pm 17.0 14.9 9.9 63 3.7 SSW 11 19 6 10 - - 0.2
23/03:00pm 17.1 14.2 9.5 61 4.0 SSW 15 20 8 11 - - 0.2
23/02:30pm 17.2 13.9 9.6 61 4.0 S 17 28 9 15 - - 0.2
23/02:00pm 17.1 14.2 9.8 62 3.8 SSW 15 22 8 12 - - 0.2
23/01:30pm 16.9 14.9 10.1 64 3.6 SSW 11 19 6 10 - - 0.2
23/01:00pm 16.7 14.6 9.9 64 3.6 WSW 11 17 6 9 - - 0.0
23/12:30pm 16.3 14.1 9.5 64 3.5 SW 11 19 6 10 - - 0.0
23/12:00pm 16.2 14.4 9.6 65 3.4 SW 9 15 5 8 - - 0.0
23/11:30am 16.1 14.3 9.3 64 3.5 SW 9 17 5 9 - - 0.0
23/11:00am 15.4 13.1 9.1 66 3.2 SSW 11 17 6 9 - - 0.0
23/10:30am 14.9 12.5 8.6 66 3.2 SW 11 19 6 10 - - 0.0
23/10:00am 14.3 11.5 8.5 68 2.9 SW 13 22 7 12 - - 0.0
23/09:30am 14.6 12.2 8.8 68 2.9 SW 11 17 6 9 - - 0.0
23/09:00am 13.7 11.3 8.5 71 2.6 SW 11 20 6 11 - - 47.2
23/08:30am 13.1 11.0 8.4 73 2.3 SW 9 17 5 9 - - 47.2
23/08:00am 12.7 9.9 8.4 75 2.1 SW 13 20 7 11 - - 47.2
23/07:30am 12.4 10.3 8.3 76 2.0 WSW 9 15 5 8 - - 47.2
23/07:00am 12.1 9.2 8.2 77 1.9 WSW 13 22 7 12 - - 47.2
23/06:30am 12.2 9.4 8.5 78 1.8 WSW 13 26 7 14 - - 47.2
23/06:00am 12.2 10.0 9.2 82 1.5 W 11 19 6 10 - - 47.2
23/05:30am 12.0 10.9 9.9 87 1.1 WSW 6 13 3 7 - - 47.2
23/05:00am 11.9 11.0 10.6 92 0.7 WSW 6 9 3 5 - - 47.2
23/04:30am 11.8 9.9 10.5 92 0.7 SW 11 17 6 9 - - 47.0
23/04:00am 12.0 9.8 10.9 93 0.6 SW 13 22 7 12 - - 47.0
23/03:30am 12.2 10.0 10.9 92 0.7 SW 13 22 7 12 - - 46.8
23/03:00am 12.3 11.0 11.2 93 0.6 SW 9 17 5 9 - - 46.4
23/02:30am 12.4 11.4 11.1 92 0.7 SW 7 11 4 6 - - 45.8
23/02:00am 12.3 11.0 11.2 93 0.6 WSW 9 17 5 9 - - 45.8
23/01:30am 12.2 10.8 10.9 92 0.7 WSW 9 17 5 9 - - 45.2
23/01:00am 12.2 10.8 10.9 92 0.7 WSW 9 17 5 9 - - 44.8
23/12:30am 12.4 11.1 11.1 92 0.7 WSW 9 17 5 9 - - 44.8
23/12:00am 12.9 10.8 11.3 90 0.8 SW 13 20 7 11 - - 43.6
 
Date/Time
EST
Tmp

°C
App
Tmp
°C
Dew
Point
°C
Rel
Hum
%
Delta-T

°C
Wind Press
QNH
hPa
Press
MSL
hPa
Rain
since
9 am
mm
Dir
 
Spd
km/h
Gust
km/h
Spd
kts
Gust
kts
22/11:30pm 13.2 11.1 11.3 88 1.0 SW 13 20 7 11 - - 43.2
22/11:00pm 13.0 11.3 11.2 89 0.9 WSW 11 20 6 11 - - 43.0
22/10:30pm 12.8 11.0 11.0 89 0.9 WSW 11 20 6 11 - - 43.0
22/10:00pm 13.0 10.9 11.1 88 1.0 SW 13 20 7 11 - - 43.0
22/09:30pm 12.8 11.0 10.9 88 1.0 WSW 11 19 6 10 - - 43.0
22/09:00pm 13.1 10.3 11.3 89 1.0 SW 17 26 9 14 - - 43.0
22/08:30pm 13.4 10.6 11.3 87 1.1 SW 17 28 9 15 - - 42.8
22/08:00pm 13.2 11.6 11.4 89 1.0 SW 11 19 6 10 - - 42.8
22/07:30pm 13.9 10.7 11.4 85 1.3 SW 19 28 10 15 - - 40.8
22/07:00pm 13.7 11.3 11.4 86 1.2 SW 15 30 8 16 - - 40.4
22/06:30pm 14.0 11.9 11.2 83 1.5 SW 13 24 7 13 - - 40.4
22/06:00pm 14.6 11.2 10.6 77 2.1 SW 19 28 10 15 - - 40.2
22/05:30pm 16.0 12.1 9.4 65 3.4 SSW 20 32 11 17 - - 40.2
22/05:00pm 16.8 11.2 8.8 59 4.1 SSW 28 48 15 26 - - 40.2
22/04:33pm 16.7 10.8 9.1 61 3.9 S 30 50 16 27 - - 40.2
22/04:30pm 16.6 10.8 9.5 63 3.7 S 30 46 16 25 - - 40.2
22/04:00pm 16.7 10.4 8.9 60 4.0 S 32 59 17 32 - - 40.2
22/03:35pm 15.8 10.4 10.8 72 2.7 SSW 30 57 16 31 - - 40.2
22/03:30pm 15.6 9.9 11.0 74 2.5 S 32 57 17 31 - - 40.2
22/03:12pm 16.9 11.6 9.8 63 3.7 SSW 28 46 15 25 - - 40.2
22/03:00pm 16.8 11.9 10.0 64 3.6 SSW 26 41 14 22 - - 40.2
22/02:30pm 16.7 10.5 10.1 65 3.5 SSW 33 56 18 30 - - 40.2
22/02:00pm 16.7 10.5 9.9 64 3.6 SSW 33 57 18 31 - - 40.2
22/01:35pm 16.7 11.5 10.1 65 3.5 SSW 28 48 15 26 - - 40.2
22/01:30pm 16.6 11.5 10.7 68 3.1 SSW 28 44 15 24 - - 40.2
22/01:00pm 14.2 9.9 12.1 87 1.1 S 26 57 14 31 - - 40.2
22/12:33pm 14.5 10.2 13.2 92 0.7 S 28 52 15 28 - - 38.6
22/12:30pm 14.3 10.0 13.2 93 0.6 SSW 28 41 15 22 - - 38.4
22/12:00pm 15.0 9.9 13.7 92 0.7 S 33 54 18 29 - - 35.4
22/11:54am 14.9 10.8 13.8 93 0.6 S 28 48 15 26 - - 35.0
22/11:30am 14.6 12.6 13.8 95 0.4 SSW 17 30 9 16 - - 25.0
22/11:00am 14.5 12.0 13.4 93 0.6 SW 19 35 10 19 - - 15.0
22/10:30am 15.0 12.5 13.4 90 0.9 S 19 35 10 19 - - 10.4
22/10:14am 14.6 10.3 13.3 92 0.7 S 28 54 15 29 - - 9.6
22/10:00am 15.0 12.1 13.9 93 0.6 S 22 41 12 22 - - 6.8
22/09:30am 14.1 11.7 12.8 92 0.7 WSW 17 32 9 17 - - 3.2
22/09:00am 13.6 11.9 12.3 92 0.7 SW 13 20 7 11 - - 2.8
22/08:30am 13.7 11.4 11.9 89 1.0 SW 15 28 8 15 - - 1.2
22/08:00am 14.7 11.3 11.1 79 1.9 SW 20 35 11 19 - - 0.2
22/07:30am 14.9 11.9 10.7 76 2.2 SW 17 35 9 19 - - 0.2
22/07:00am 15.0 11.6 10.4 74 2.4 SW 19 30 10 16 - - 0.2
22/06:30am 15.0 12.7 10.4 74 2.4 SW 13 20 7 11 - - 0.2
22/06:00am 14.8 12.8 10.0 73 2.5 WSW 11 20 6 11 - - 0.2
22/05:30am 14.7 12.6 9.9 73 2.5 WSW 11 19 6 10 - - 0.2
22/05:00am 14.6 12.1 9.6 72 2.6 WSW 13 20 7 11 - - 0.2
22/04:30am 14.7 12.9 9.5 71 2.7 WSW 9 17 5 9 - - 0.2
22/04:00am 14.4 11.8 9.2 71 2.7 WSW 13 24 7 13 - - 0.2
22/03:30am 14.5 11.9 9.5 72 2.6 WSW 13 22 7 12 - - 0.2
22/03:00am 14.6 12.1 9.8 73 2.5 WSW 13 24 7 13 - - 0.2
22/02:30am 14.2 12.2 10.0 76 2.2 W 11 17 6 9 - - 0.2
22/02:00am 14.6 13.1 10.4 76 2.2 W 9 13 5 7 - - 0.2
22/01:30am 14.6 13.1 10.6 77 2.1 WSW 9 19 5 10 - - 0.2
22/01:00am 14.7 12.9 10.7 77 2.1 W 11 20 6 11 - - 0.2
22/12:30am 15.0 13.6 11.0 77 2.1 WSW 9 17 5 9 - - 0.2
22/12:00am 14.9 13.7 11.5 80 1.8 WSW 9 15 5 8 - - 0.2
 
Date/Time
EST
Tmp

°C
App
Tmp
°C
Dew
Point
°C
Rel
Hum
%
Delta-T

°C
Wind Press
QNH
hPa
Press
MSL
hPa
Rain
since
9 am
mm
Dir
 
Spd
km/h
Gust
km/h
Spd
kts
Gust
kts
21/11:30pm 15.6 14.0 11.6 77 2.2 SW 11 17 6 9 - - 0.2
21/11:00pm 15.7 14.3 12.3 80 1.9 SW 11 20 6 11 - - 0.2
21/10:30pm 15.7 15.0 12.1 79 2.0 SW 7 13 4 7 - - 0.2
21/10:00pm 15.9 15.1 11.1 73 2.6 WSW 6 9 3 5 - - 0.2
21/09:30pm 16.2 14.9 11.2 72 2.7 WSW 9 13 5 7 - - 0.2
21/09:00pm 16.9 15.1 12.0 73 2.7 SW 13 22 7 12 - - 0.2
21/08:30pm 16.7 16.2 12.7 77 2.2 SW 7 17 4 9 - - 0.2
21/08:00pm 17.1 16.3 12.8 76 2.4 SSW 9 17 5 9 - - 0.2
21/07:30pm 17.3 16.2 13.0 76 2.4 SSW 11 22 6 12 - - 0.2
21/07:00pm 17.2 16.7 12.7 75 2.5 SW 7 13 4 7 - - 0.2
21/06:30pm 17.4 16.5 12.7 74 2.6 SSW 9 17 5 9 - - 0.2
21/06:00pm 17.5 16.7 12.8 74 2.6 S 9 17 5 9 - - 0.2
21/05:30pm 17.6 16.3 12.5 72 2.8 S 11 15 6 8 - - 0.2
21/05:00pm 17.8 16.6 12.9 73 2.7 S 11 19 6 10 - - 0.2
21/04:30pm 18.3 17.2 13.0 71 3.0 S 11 20 6 11 - - 0.2
21/04:00pm 18.9 18.4 12.6 67 3.5 S 7 13 4 7 - - 0.2
21/03:30pm 19.0 18.1 12.7 67 3.5 S 9 17 5 9 - - 0.2
21/03:00pm 19.3 18.1 11.6 61 4.2 S 9 17 5 9 - - 0.2
21/02:30pm 19.9 18.4 10.6 55 5.0 SSE 9 13 5 7 - - 0.2
21/02:00pm 20.5 19.0 9.1 48 6.0 SSW 7 11 4 6 - - 0.2
21/01:30pm 20.7 19.2 9.0 47 6.2 SW 7 13 4 7 - - 0.2
21/01:00pm 20.4 18.9 9.3 49 5.9 SSW 7 13 4 7 - - 0.2
21/12:30pm 20.6 18.7 10.4 52 5.5 SW 11 15 6 8 - - 0.2
21/12:00pm 19.9 18.2 10.0 53 5.3 SSW 9 15 5 8 - - 0.2
21/11:30am 19.7 17.7 10.1 54 5.2 WSW 11 17 6 9 - - 0.2
21/11:00am 19.4 17.0 9.9 54 5.1 SW 13 20 7 11 - - 0.2
21/10:30am 19.4 17.8 11.7 61 4.2 WNW 11 15 6 8 - - 0.2
21/10:00am 18.8 17.0 10.9 60 4.3 WNW 11 15 6 8 - - 0.0
21/09:30am 18.3 16.8 11.8 66 3.6 W 11 17 6 9 - - 0.0
21/09:00am 17.4 15.6 12.1 71 2.9 W 13 15 7 8 - - 1.4
21/08:30am 16.9 15.4 11.8 72 2.8 WNW 11 15 6 8 - - 1.4
21/08:00am 15.7 14.6 11.9 78 2.1 W 9 13 5 7 - - 1.4
21/07:30am 14.3 14.0 11.6 84 1.4 W 4 7 2 4 - - 1.4
21/07:00am 14.4 13.2 11.7 84 1.4 W 9 13 5 7 - - 1.4
21/06:30am 13.7 13.0 12.1 90 0.9 W 7 11 4 6 - - 1.4
21/06:00am 14.2 14.4 11.9 86 1.2 SSE 2 4 1 2 - - 1.4
21/05:30am 14.9 14.2 12.0 83 1.6 NW 7 11 4 6 - - 1.4
21/05:00am 14.5 15.2 12.2 86 1.2 CALM 0 0 0 0 - - 1.4
21/04:30am 14.7 14.8 12.6 87 1.1 SW 4 6 2 3 - - 1.4
21/04:00am 15.3 15.6 12.2 82 1.7 WSW 2 4 1 2 - - 1.4
21/03:30am 16.2 15.7 12.0 76 2.3 SE 6 9 3 5 - - 1.4
21/03:00am 16.6 16.0 11.7 73 2.7 WSW 6 11 3 6 - - 1.4
21/02:30am 17.0 15.4 11.7 71 2.9 NW 11 19 6 10 - - 1.4
21/02:00am 16.9 14.9 11.6 71 2.9 NW 13 26 7 14 - - 1.4
21/01:30am 17.4 15.3 11.2 67 3.4 NNW 13 20 7 11 - - 1.4
21/01:00am 17.0 15.3 11.1 68 3.2 NNW 11 20 6 11 - - 1.4
21/12:30am 16.9 15.2 11.2 69 3.1 N 11 17 6 9 - - 1.4
21/12:00am 16.9 15.0 11.8 72 2.8 NNW 13 20 7 11 - - 1.4
 
Date/Time
EST
Tmp

°C
App
Tmp
°C
Dew
Point
°C
Rel
Hum
%
Delta-T

°C
Wind Press
QNH
hPa
Press
MSL
hPa
Rain
since
9 am
mm
Dir
 
Spd
km/h
Gust
km/h
Spd
kts
Gust
kts
20/11:30pm 17.0 15.6 12.3 74 2.6 NNW 11 20 6 11 - - 1.4
20/11:00pm 16.8 16.3 12.7 77 2.3 N 7 13 4 7 - - 1.4
20/10:30pm 16.9 14.0 12.2 74 2.6 NNW 19 28 10 15 - - 1.4

Latest Capital City Observations: Canberra | Sydney | Melbourne | Brisbane | Adelaide | Perth | Hobart | Darwin

Other Formats:

Comma delimited format used in spreadsheet applications
http://www.bom.gov.au/fwo/IDN60901/IDN60901.94782.axf

JavaScript Object Notation format (JSON) in row-major order
http://www.bom.gov.au/fwo/IDN60901/IDN60901.94782.json